Time;durP1;ratioP1;P1;durP2;ratioP2;P2;SDS_P1;SDS_P2;PMS_P1;PMS_P2;Temp;Humidity;BMP_temperature;BMP_pressure;BME280_temperature;BME280_humidity;BME280_pressure;Samples;Min_cycle;Max_cycle;Signal;HPM_P1;HPM_P2
2022/05/24 00:01:23;;;;;;;15.03;10.97;;;17.00;99.90;;;;;;5035473;28;20480;-75
2022/05/24 00:03:50;;;;;;;12.47;10.10;;;16.90;99.90;;;;;;5033378;28;20475;-77
2022/05/24 00:06:17;;;;;;;13.27;10.30;;;16.90;99.90;;;;;;5036268;28;20474;-76
2022/05/24 00:08:44;;;;;;;14.30;11.00;;;16.90;99.90;;;;;;5035900;28;20484;-76
2022/05/24 00:11:13;;;;;;;23.37;12.93;;;17.00;99.90;;;;;;5044279;28;20490;-76
2022/05/24 00:13:39;;;;;;;18.43;12.47;;;17.20;99.90;;;;;;5036348;28;20987;-77
2022/05/24 00:16:06;;;;;;;17.77;12.60;;;17.30;99.90;;;;;;5041011;28;20467;-75
2022/05/24 00:18:33;;;;;;;13.63;11.13;;;17.20;99.90;;;;;;5045969;28;20556;-76
2022/05/24 00:21:02;;;;;;;15.50;12.83;;;17.20;99.90;;;;;;5034905;28;21202;-78
2022/05/24 00:23:30;;;;;;;13.10;11.70;;;17.20;99.90;;;;;;5041173;28;20813;-74
2022/05/24 00:26:00;;;;;;;13.43;11.37;;;17.30;99.90;;;;;;5041457;28;20718;-75
2022/05/24 00:28:30;;;;;;;13.43;10.60;;;17.40;99.90;;;;;;5044705;28;20485;-76
2022/05/24 00:30:57;;;;;;;19.30;13.37;;;17.60;99.90;;;;;;5042754;28;20523;-74
2022/05/24 00:33:25;;;;;;;20.23;10.27;;;17.70;99.90;;;;;;5038172;28;20585;-75
2022/05/24 00:35:52;;;;;;;19.67;13.53;;;17.60;99.90;;;;;;5047726;28;20887;-75
2022/05/24 00:38:26;;;;;;;20.53;14.83;;;17.50;99.90;;;;;;5055775;28;20486;-75
2022/05/24 00:41:02;;;;;;;20.97;15.17;;;17.40;99.90;;;;;;5055459;28;20549;-70
2022/05/24 00:43:34;;;;;;;15.67;13.50;;;17.30;99.90;;;;;;5058736;28;20482;-75
2022/05/24 00:46:04;;;;;;;29.33;15.73;;;17.30;99.90;;;;;;5054863;28;20561;-72
2022/05/24 00:48:37;;;;;;;18.70;15.33;;;17.20;99.90;;;;;;5060241;28;21663;-76
2022/05/24 00:51:06;;;;;;;34.07;19.17;;;17.20;99.90;;;;;;5056832;28;21307;-70
2022/05/24 00:53:37;;;;;;;17.70;14.77;;;16.90;99.90;;;;;;5058748;28;20486;-72
2022/05/24 00:56:08;;;;;;;23.53;17.30;;;17.10;99.90;;;;;;5054702;28;20479;-75
2022/05/24 00:58:41;;;;;;;26.07;13.63;;;17.10;99.90;;;;;;5058723;28;20483;-71
2022/05/24 01:01:21;;;;;;;21.57;14.50;;;17.10;99.90;;;;;;5045667;28;20550;-75
2022/05/24 01:03:48;;;;;;;22.90;10.50;;;17.00;99.90;;;;;;5049068;28;20832;-72
2022/05/24 01:06:14;;;;;;;13.50;11.67;;;17.00;99.90;;;;;;5049832;28;20478;-77
2022/05/24 01:08:42;;;;;;;17.73;11.77;;;17.00;99.90;;;;;;5059211;28;21209;-72
2022/05/24 01:11:11;;;;;;;23.30;11.97;;;16.80;99.90;;;;;;5058410;28;20487;-73
2022/05/24 01:13:39;;;;;;;12.70;10.00;;;16.80;99.90;;;;;;5058732;28;20494;-71
2022/05/24 01:16:07;;;;;;;18.23;13.00;;;16.80;99.90;;;;;;5055057;28;20471;-75
2022/05/24 01:18:34;;;;;;;21.73;9.50;;;16.80;99.90;;;;;;5060637;28;20487;-76
2022/05/24 01:21:03;;;;;;;16.43;12.10;;;16.80;99.90;;;;;;5057700;28;20474;-74
2022/05/24 01:23:49;;;;;;;9.20;8.23;;;16.70;99.90;;;;;;5059736;28;20479;-75
2022/05/24 01:26:23;;;;;;;10.60;8.47;;;15.80;99.90;;;;;;5055511;28;20478;-75
2022/05/24 01:28:54;;;;;;;10.80;8.57;;;16.50;99.90;;;;;;5054968;28;20482;-74
2022/05/24 01:31:22;;;;;;;9.57;7.70;;;16.50;99.90;;;;;;5048414;28;20931;-73
2022/05/24 01:36:37;;;;;;;9.70;8.30;;;16.60;99.90;;;;;;5052033;28;21048;-74
2022/05/24 01:39:07;;;;;;;21.43;13.70;;;16.60;99.90;;;;;;5057191;28;21026;-76
2022/05/24 01:41:38;;;;;;;15.23;8.17;;;16.50;99.90;;;;;;5059034;28;20578;-75
2022/05/24 01:44:07;;;;;;;17.23;11.93;;;16.40;99.90;;;;;;5048086;28;20479;-74
2022/05/24 01:46:38;;;;;;;9.90;8.00;;;16.50;99.90;;;;;;5063574;28;21242;-76
2022/05/24 01:49:09;;;;;;;15.63;9.93;;;16.40;99.90;;;;;;5062070;28;20493;-77
2022/05/24 01:51:41;;;;;;;10.13;7.60;;;16.40;99.90;;;;;;5059641;28;21048;-76
2022/05/24 01:54:09;;;;;;;20.77;11.27;;;16.50;99.90;;;;;;5059758;28;20478;-72
2022/05/24 01:56:45;;;;;;;9.57;7.07;;;16.50;99.90;;;;;;5063934;28;20501;-77
2022/05/24 01:59:18;;;;;;;11.03;8.87;;;16.50;99.90;;;;;;5061695;28;20478;-73
2022/05/24 02:01:49;;;;;;;11.10;9.10;;;16.40;99.90;;;;;;5062835;28;20482;-76
2022/05/24 02:04:16;;;;;;;14.03;9.87;;;16.40;99.90;;;;;;5061294;28;20470;-76
2022/05/24 02:06:43;;;;;;;30.07;8.93;;;16.40;99.90;;;;;;5059400;28;20487;-72
2022/05/24 02:09:12;;;;;;;14.07;10.70;;;16.30;99.90;;;;;;5061836;28;21096;-74
2022/05/24 02:11:40;;;;;;;8.90;7.97;;;16.30;99.90;;;;;;5063906;28;20483;-74
2022/05/24 02:14:12;;;;;;;44.20;12.63;;;16.30;99.90;;;;;;5060913;28;21110;-71
2022/05/24 02:16:47;;;;;;;13.03;8.50;;;16.30;99.90;;;;;;5056938;28;20478;-72
2022/05/24 02:19:15;;;;;;;9.33;7.03;;;16.20;99.90;;;;;;5058629;28;20482;-72
2022/05/24 02:21:45;;;;;;;8.50;6.97;;;16.20;99.90;;;;;;5059915;28;20470;-76
2022/05/24 02:24:19;;;;;;;14.60;8.53;;;16.20;99.90;;;;;;5060310;28;20486;-72
2022/05/24 02:26:47;;;;;;;16.37;6.67;;;16.20;99.90;;;;;;5059248;28;20794;-73
2022/05/24 02:29:14;;;;;;;12.90;7.80;;;16.20;99.90;;;;;;5062067;28;21021;-71
2022/05/24 02:31:43;;;;;;;10.57;8.37;;;16.30;99.90;;;;;;5062565;28;20482;-71
2022/05/24 02:34:11;;;;;;;20.37;9.07;;;16.20;99.90;;;;;;5062308;28;20491;-73
2022/05/24 02:36:38;;;;;;;9.40;7.60;;;16.30;99.90;;;;;;5058462;28;20493;-77
2022/05/24 02:39:06;;;;;;;15.93;11.03;;;16.30;99.90;;;;;;5060953;28;20486;-76
2022/05/24 02:41:32;;;;;;;17.00;8.10;;;16.20;99.90;;;;;;5061973;28;21018;-74
2022/05/24 02:44:01;;;;;;;18.50;11.90;;;16.10;99.90;;;;;;5062648;28;20582;-74
2022/05/24 02:46:30;;;;;;;10.87;8.90;;;16.10;99.90;;;;;;5057128;28;20482;-74
2022/05/24 02:48:58;;;;;;;16.00;11.60;;;16.10;99.90;;;;;;5061673;28;20471;-76
2022/05/24 02:51:26;;;;;;;8.20;6.33;;;16.00;99.90;;;;;;5062485;28;20471;-75
2022/05/24 02:53:53;;;;;;;11.07;8.13;;;16.00;99.90;;;;;;5062443;28;20479;-76
2022/05/24 02:56:20;;;;;;;9.40;7.13;;;16.00;99.90;;;;;;5040324;28;20479;-75
2022/05/24 02:58:47;;;;;;;9.80;7.77;;;15.90;99.90;;;;;;5057074;28;21073;-76
2022/05/24 03:01:18;;;;;;;8.57;6.00;;;15.90;99.90;;;;;;5062300;28;20475;-76
2022/05/24 03:03:45;;;;;;;7.90;5.77;;;15.90;99.90;;;;;;5062096;28;20457;-78
2022/05/24 03:06:13;;;;;;;10.50;8.03;;;15.90;99.90;;;;;;5051048;28;20971;-78
2022/05/24 03:11:24;;;;;;;7.00;6.30;;;15.80;99.90;;;;;;5050234;28;20477;-78
2022/05/24 03:16:36;;;;;;;6.10;5.20;;;15.70;99.90;;;;;;5060838;28;21048;-74
2022/05/24 03:19:03;;;;;;;15.33;10.70;;;15.70;99.90;;;;;;5059839;28;20490;-76
2022/05/24 03:21:31;;;;;;;8.53;6.40;;;15.70;99.90;;;;;;5059678;28;20877;-75
2022/05/24 03:23:58;;;;;;;4.33;4.03;;;15.60;99.90;;;;;;5057547;28;20467;-72
2022/05/24 03:26:25;;;;;;;8.00;5.60;;;;;;;;;;5059855;28;20486;-73
2022/05/24 03:28:52;;;;;;;4.77;4.37;;;15.70;99.90;;;;;;5058702;28;21263;-74
2022/05/24 03:31:19;;;;;;;5.20;4.20;;;15.70;99.90;;;;;;5062649;28;20993;-73
2022/05/24 03:33:46;;;;;;;4.83;3.77;;;15.70;99.90;;;;;;5062263;28;21013;-75
2022/05/24 03:36:13;;;;;;;7.70;5.70;;;15.70;99.90;;;;;;5059108;28;21411;-75
2022/05/24 03:38:41;;;;;;;7.33;6.63;;;15.70;99.90;;;;;;5059823;28;20475;-75
2022/05/24 03:41:08;;;;;;;9.60;7.20;;;15.70;99.90;;;;;;5060701;28;20482;-73
2022/05/24 03:43:35;;;;;;;5.80;5.20;;;15.70;99.90;;;;;;5056084;28;20565;-74
2022/05/24 03:46:04;;;;;;;17.23;7.80;;;15.60;99.90;;;;;;5055585;28;20819;-73
2022/05/24 03:48:32;;;;;;;6.23;5.10;;;15.60;99.90;;;;;;5051389;28;20487;-74
2022/05/24 03:50:59;;;;;;;7.60;6.70;;;15.70;99.90;;;;;;5070139;28;20502;-75
2022/05/24 03:53:27;;;;;;;5.90;5.23;;;15.70;99.90;;;;;;5062265;28;20474;-73
2022/05/24 03:55:56;;;;;;;4.70;4.20;;;15.70;99.90;;;;;;5058431;28;21053;-73
2022/05/24 03:58:24;;;;;;;5.20;4.80;;;15.70;99.90;;;;;;5060134;28;20550;-73
2022/05/24 04:00:51;;;;;;;4.60;4.20;;;15.70;99.90;;;;;;5057143;28;20487;-73
2022/05/24 04:03:19;;;;;;;13.03;5.83;;;15.70;99.90;;;;;;5059141;28;20465;-72
2022/05/24 04:05:46;;;;;;;5.77;5.17;;;15.70;99.90;;;;;;5038044;28;20540;-73
2022/05/24 04:08:15;;;;;;;4.70;4.30;;;15.70;99.90;;;;;;5064763;28;20487;-74
2022/05/24 04:10:42;;;;;;;9.03;4.00;;;15.80;99.90;;;;;;5055717;28;20483;-73
2022/05/24 04:13:10;;;;;;;7.07;6.00;;;15.80;99.90;;;;;;5060289;28;20902;-74
2022/05/24 04:15:37;;;;;;;5.90;5.30;;;15.90;99.90;;;;;;5059583;28;20519;-74
2022/05/24 04:18:04;;;;;;;3.80;2.53;;;15.60;99.90;;;;;;5061625;28;20477;-75
2022/05/24 04:20:31;;;;;;;3.20;2.90;;;15.70;99.90;;;;;;5064471;28;20471;-78
2022/05/24 04:22:58;;;;;;;4.80;3.73;;;15.60;99.90;;;;;;5059369;28;20479;-77
2022/05/24 04:25:26;;;;;;;5.47;2.50;;;15.60;99.90;;;;;;5058181;28;21019;-76
2022/05/24 04:27:54;;;;;;;4.53;2.60;;;15.50;99.90;;;;;;5060982;28;20837;-74
2022/05/24 04:30:22;;;;;;;3.80;2.43;;;15.30;99.90;;;;;;5058219;28;20555;-72
2022/05/24 04:32:49;;;;;;;7.20;1.67;;;15.30;99.90;;;;;;5059438;28;20487;-74
2022/05/24 04:35:16;;;;;;;5.67;3.07;;;15.30;99.90;;;;;;5056049;28;20483;-73
2022/05/24 04:37:43;;;;;;;4.60;4.20;;;15.30;99.90;;;;;;5043717;28;20478;-76
2022/05/24 04:40:10;;;;;;;6.30;3.33;;;15.30;99.90;;;;;;5046670;28;20867;-76
2022/05/24 04:42:38;;;;;;;3.63;3.33;;;15.30;99.90;;;;;;5057998;28;20509;-74
2022/05/24 04:45:08;;;;;;;5.80;4.57;;;15.30;99.90;;;;;;5060872;28;21020;-76
2022/05/24 04:47:37;;;;;;;5.17;3.40;;;15.30;99.90;;;;;;5058518;28;20481;-76
2022/05/24 04:50:06;;;;;;;7.00;5.73;;;15.20;99.90;;;;;;5058616;28;20510;-73
2022/05/24 04:52:36;;;;;;;8.90;2.70;;;15.30;99.90;;;;;;5057658;28;20486;-75
2022/05/24 04:55:06;;;;;;;11.10;5.80;;;15.30;99.90;;;;;;5058467;28;20470;-77
2022/05/24 04:57:34;;;;;;;4.90;3.30;;;15.20;99.90;;;;;;5058243;28;21070;-74
2022/05/24 05:00:00;;;;;;;12.67;4.07;;;15.10;99.90;;;;;;5058868;28;21268;-78
2022/05/24 05:02:27;;;;;;;3.23;2.70;;;15.20;99.90;;;;;;5053726;28;20493;-80
2022/05/24 05:04:55;;;;;;;2.80;2.53;;;15.20;99.90;;;;;;5058142;28;20478;-78
2022/05/24 05:07:22;;;;;;;7.90;2.50;;;15.20;99.90;;;;;;5057192;28;20887;-78
2022/05/24 05:09:51;;;;;;;4.37;2.60;;;15.20;99.90;;;;;;5059689;28;20501;-78
2022/05/24 05:12:19;;;;;;;3.30;3.00;;;15.20;99.90;;;;;;5058467;28;20827;-79
2022/05/24 05:14:46;;;;;;;9.27;3.37;;;15.20;99.90;;;;;;5059082;28;20478;-79
2022/05/24 05:17:15;;;;;;;5.20;3.80;;;15.10;99.90;;;;;;5058306;28;21005;-75
2022/05/24 05:19:42;;;;;;;5.03;3.70;;;15.10;99.90;;;;;;5057932;28;20494;-77
2022/05/24 05:22:10;;;;;;;9.97;4.63;;;15.20;99.90;;;;;;5062657;28;20512;-79
2022/05/24 05:24:37;;;;;;;4.07;3.40;;;15.20;99.90;;;;;;5061234;28;20848;-78
2022/05/24 05:27:05;;;;;;;7.23;5.70;;;15.20;99.90;;;;;;5062274;28;20475;-78
2022/05/24 05:32:19;;;;;;;2.90;2.70;;;15.10;99.90;;;;;;5060308;28;20564;-77
2022/05/24 05:34:48;;;;;;;13.23;3.70;;;15.10;99.90;;;;;;5065443;28;21299;-78
2022/05/24 05:37:16;;;;;;;4.43;2.33;;;15.00;99.90;;;;;;5061178;28;20486;-74
2022/05/24 05:39:43;;;;;;;4.27;3.27;;;15.00;99.90;;;;;;5061261;28;20506;-77
2022/05/24 05:42:11;;;;;;;6.20;3.30;;;14.90;99.90;;;;;;5062048;28;20865;-75
2022/05/24 05:44:38;;;;;;;4.77;4.27;;;14.90;99.90;;;;;;5061253;28;20481;-76
2022/05/24 05:47:06;;;;;;;7.80;6.53;;;14.80;99.90;;;;;;5061268;28;20486;-73
2022/05/24 05:49:32;;;;;;;4.40;3.27;;;14.80;99.90;;;;;;5063074;28;20478;-76
2022/05/24 05:51:59;;;;;;;7.43;5.67;;;14.90;99.90;;;;;;5062919;28;20779;-76
2022/05/24 05:54:28;;;;;;;3.23;2.93;;;;;;;;;;5062953;28;20484;-75
2022/05/24 05:56:55;;;;;;;4.07;2.90;;;14.80;99.90;;;;;;5061629;28;21939;-79
2022/05/24 05:59:21;;;;;;;4.10;3.17;;;14.80;99.90;;;;;;5062849;28;20481;-74
2022/05/24 06:01:49;;;;;;;3.83;3.27;;;;;;;;;;5059439;28;21056;-79
2022/05/24 06:04:15;;;;;;;5.23;3.20;;;14.90;99.90;;;;;;5060399;28;20479;-74
2022/05/24 06:06:45;;;;;;;4.43;3.50;;;14.80;99.90;;;;;;5059643;28;20484;-77
2022/05/24 06:09:12;;;;;;;3.90;2.87;;;;;;;;;;5061555;28;20493;-71
2022/05/24 06:11:41;;;;;;;6.20;3.37;;;14.90;99.90;;;;;;5063008;28;20469;-76
2022/05/24 06:14:08;;;;;;;7.10;5.80;;;14.90;99.90;;;;;;5062008;28;20470;-78
2022/05/24 06:16:35;;;;;;;3.00;2.70;;;14.90;99.90;;;;;;5061162;28;21104;-77
2022/05/24 06:19:02;;;;;;;5.60;4.90;;;15.00;99.90;;;;;;5050107;28;20472;-76
2022/05/24 06:21:33;;;;;;;2.97;2.73;;;15.00;99.90;;;;;;5056879;28;20997;-76
2022/05/24 06:24:00;;;;;;;4.63;3.93;;;15.00;99.90;;;;;;5060822;28;20481;-74
2022/05/24 06:26:28;;;;;;;5.00;2.80;;;15.00;99.90;;;;;;5060598;28;20551;-76
2022/05/24 06:28:57;;;;;;;5.00;4.43;;;15.10;99.90;;;;;;5059941;28;20879;-73
2022/05/24 06:31:24;;;;;;;6.60;2.33;;;15.10;99.90;;;;;;5062730;28;20485;-75
2022/05/24 06:33:51;;;;;;;4.63;3.40;;;15.20;99.90;;;;;;5060894;28;20481;-77
2022/05/24 06:36:20;;;;;;;6.10;3.07;;;15.30;99.90;;;;;;5057526;28;20494;-76
2022/05/24 06:38:46;;;;;;;6.23;3.33;;;15.30;99.90;;;;;;5060160;28;20482;-77
2022/05/24 06:41:13;;;;;;;4.70;3.97;;;15.40;99.90;;;;;;5059284;28;20487;-74
2022/05/24 06:43:40;;;;;;;3.80;3.17;;;15.50;99.90;;;;;;5057763;28;20493;-73
2022/05/24 06:46:08;;;;;;;9.83;4.73;;;15.60;99.90;;;;;;5059888;28;20493;-70
2022/05/24 06:48:36;;;;;;;4.37;3.13;;;15.70;99.90;;;;;;5061775;28;20490;-73
2022/05/24 06:51:07;;;;;;;8.63;6.13;;;15.90;99.90;;;;;;5061420;28;20528;-71
2022/05/24 06:53:34;;;;;;;9.10;3.53;;;16.00;99.90;;;;;;5062686;28;20474;-74
2022/05/24 06:56:01;;;;;;;6.53;5.87;;;16.10;99.90;;;;;;5060219;28;20521;-70
2022/05/24 06:58:27;;;;;;;3.47;3.10;;;16.30;99.90;;;;;;5061595;28;20497;-72
2022/05/24 07:03:40;;;;;;;4.33;3.20;;;16.50;99.40;;;;;;5050989;28;20517;-73
2022/05/24 07:06:06;;;;;;;7.90;4.00;;;16.50;99.90;;;;;;5038426;28;20790;-73
2022/05/24 07:08:33;;;;;;;4.50;4.10;;;16.40;99.90;;;;;;5042274;28;20498;-74
2022/05/24 07:11:00;;;;;;;7.63;4.83;;;16.60;99.90;;;;;;5041050;28;20583;-73
2022/05/24 07:13:27;;;;;;;8.03;3.27;;;16.60;99.90;;;;;;5032269;28;20502;-73
2022/05/24 07:15:54;;;;;;;3.43;3.17;;;16.70;99.80;;;;;;5035932;28;20475;-72
2022/05/24 07:18:21;;;;;;;3.10;2.90;;;16.80;99.90;;;;;;5045566;28;20483;-72
2022/05/24 07:20:49;;;;;;;7.87;2.60;;;16.70;99.20;;;;;;5042316;28;20593;-71
2022/05/24 07:23:17;;;;;;;7.17;4.90;;;16.70;99.60;;;;;;5035048;28;20479;-73
2022/05/24 07:25:46;;;;;;;4.30;3.90;;;16.80;99.50;;;;;;5033765;28;21117;-73
2022/05/24 07:28:15;;;;;;;9.40;3.37;;;16.50;98.90;;;;;;5013009;28;20482;-73
2022/05/24 07:30:43;;;;;;;4.70;4.30;;;16.40;98.90;;;;;;5046705;28;20520;-70
2022/05/24 07:33:10;;;;;;;7.13;6.43;;;;;;;;;;5043603;28;20525;-76
2022/05/24 07:35:38;;;;;;;7.23;6.00;;;16.20;99.30;;;;;;5043290;28;20628;-73
2022/05/24 07:38:08;;;;;;;6.50;5.90;;;16.30;99.70;;;;;;5043469;28;20778;-70
2022/05/24 07:46:09;;;;;;;9.30;5.73;;;16.70;99.20;;;;;;5028327;28;20481;-70
2022/05/24 07:48:36;;;;;;;4.77;4.37;;;16.70;99.30;;;;;;5043594;28;20468;-70
2022/05/24 07:51:04;;;;;;;8.77;6.10;;;16.80;99.90;;;;;;5034216;28;20490;-72
2022/05/24 07:53:33;;;;;;;3.77;3.37;;;16.80;99.90;;;;;;5032868;28;20837;-71
2022/05/24 07:56:00;;;;;;;6.90;6.20;;;16.90;99.90;;;;;;5034072;28;20799;-72
2022/05/24 07:58:28;;;;;;;11.37;3.97;;;17.10;99.90;;;;;;5034441;28;20494;-73
2022/05/24 08:00:56;;;;;;;4.20;3.70;;;17.10;99.50;;;;;;5038883;28;20480;-74
2022/05/24 08:03:23;;;;;;;5.83;3.00;;;17.00;99.90;;;;;;5045587;28;20562;-76
2022/05/24 08:05:50;;;;;;;3.83;3.50;;;16.60;97.70;;;;;;5044774;28;20633;-74
2022/05/24 08:08:17;;;;;;;5.13;4.70;;;16.50;97.80;;;;;;5039417;28;20482;-73
2022/05/24 08:10:46;;;;;;;8.17;4.70;;;16.10;97.50;;;;;;5033413;28;20995;-73
2022/05/24 08:13:15;;;;;;;13.00;4.20;;;15.70;97.60;;;;;;5041259;28;20486;-74
2022/05/24 08:15:43;;;;;;;4.10;3.80;;;15.60;98.10;;;;;;5039359;28;20999;-76
2022/05/24 08:18:10;;;;;;;9.70;5.20;;;15.50;98.80;;;;;;5041090;28;20986;-77
2022/05/24 08:20:38;;;;;;;9.63;3.60;;;15.40;99.60;;;;;;5033406;28;20476;-77
2022/05/24 08:23:05;;;;;;;8.33;6.73;;;15.60;99.90;;;;;;5043755;28;20498;-78
2022/05/24 08:25:33;;;;;;;6.70;6.00;;;15.80;99.90;;;;;;5027496;28;20486;-75
2022/05/24 08:28:02;;;;;;;13.53;5.23;;;16.10;99.80;;;;;;5043979;28;20485;-77
2022/05/24 08:30:31;;;;;;;6.70;3.87;;;16.20;98.90;;;;;;5039678;28;21007;-76
2022/05/24 08:32:57;;;;;;;5.60;4.20;;;16.30;98.50;;;;;;5041385;28;20494;-76
2022/05/24 08:35:25;;;;;;;8.37;4.70;;;13.50;98.10;;;;;;5039100;28;20479;-74
2022/05/24 08:37:54;;;;;;;4.03;3.63;;;16.90;99.60;;;;;;5044661;28;20478;-79
2022/05/24 08:40:23;;;;;;;5.87;4.70;;;;;;;;;;5040884;28;20483;-75
2022/05/24 08:43:12;;;;;;;4.10;3.77;;;17.50;98.50;;;;;;5039398;28;20575;-83
2022/05/24 08:48:37;;;;;;;4.53;4.13;;;17.80;98.60;;;;;;5046073;28;20520;-78
2022/05/24 08:51:10;;;;;;;8.30;3.60;;;18.10;99.10;;;;;;5044974;28;20479;-72
2022/05/24 08:53:41;;;;;;;4.20;3.90;;;18.30;97.80;;;;;;5040504;28;20544;-71
2022/05/24 08:56:12;;;;;;;6.13;5.63;;;18.60;98.60;;;;;;5028952;28;20532;-74
2022/05/24 08:58:46;;;;;;;7.47;6.33;;;18.50;96.90;;;;;;5033245;28;20471;-74
2022/05/24 09:01:16;;;;;;;8.90;5.30;;;18.30;94.90;;;;;;5038302;28;21118;-79
2022/05/24 09:03:45;;;;;;;6.57;3.60;;;17.60;93.80;;;;;;5034477;28;20486;-74
2022/05/24 09:06:17;;;;;;;6.47;4.43;;;16.90;92.30;;;;;;5043279;28;20546;-74
2022/05/24 09:08:52;;;;;;;10.60;5.27;;;16.40;94.10;;;;;;5039298;28;20476;-78
2022/05/24 09:11:27;;;;;;;4.67;3.73;;;16.10;94.40;;;;;;5042109;28;20509;-78
2022/05/24 09:14:19;;;;;;;4.80;3.53;;;15.90;95.40;;;;;;5046243;28;20498;-77
2022/05/24 09:16:54;;;;;;;7.10;5.50;;;15.80;96.60;;;;;;5042936;28;20650;-77
2022/05/24 09:19:24;;;;;;;19.63;3.90;;;15.70;97.50;;;;;;5040004;28;20544;-78
2022/05/24 09:21:53;;;;;;;5.20;3.70;;;16.70;97.80;;;;;;5045392;28;20486;-80
2022/05/24 09:24:30;;;;;;;5.10;3.93;;;16.00;97.90;;;;;;5038186;28;20482;-78
2022/05/24 09:27:09;;;;;;;4.70;3.90;;;16.40;98.30;;;;;;5037196;28;20508;-77
2022/05/24 09:29:57;;;;;;;5.77;5.10;;;16.90;99.10;;;;;;5053718;28;20478;-75
2022/05/24 09:32:31;;;;;;;3.40;3.10;;;17.20;98.80;;;;;;5039358;28;20467;-74
2022/05/24 09:35:07;;;;;;;4.60;4.20;;;17.70;99.90;;;;;;5045258;28;20494;-78
2022/05/24 09:37:34;;;;;;;4.27;3.97;;;17.90;99.00;;;;;;5040144;28;20483;-77
2022/05/24 09:40:06;;;;;;;6.50;4.77;;;18.30;97.90;;;;;;5036166;28;20483;-76
2022/05/24 09:42:36;;;;;;;17.07;3.07;;;18.60;97.50;;;;;;5037565;28;20482;-77
2022/05/24 09:45:09;;;;;;;4.73;4.33;;;18.60;95.60;;;;;;5037310;28;20907;-76
2022/05/24 09:47:50;;;;;;;8.27;3.60;;;18.60;95.60;;;;;;5036723;28;20565;-76
2022/05/24 09:50:29;;;;;;;6.23;5.67;;;18.50;94.60;;;;;;5036864;28;20923;-77
2022/05/24 09:53:17;;;;;;;2.67;2.27;;;18.30;93.50;;;;;;5039459;28;21234;-75
2022/05/24 09:55:48;;;;;;;3.80;3.50;;;18.10;93.20;;;;;;5037547;28;20470;-74
2022/05/24 09:58:21;;;;;;;10.80;3.17;;;18.10;93.50;;;;;;5041230;28;20469;-74
2022/05/24 10:00:52;;;;;;;3.13;2.93;;;18.10;93.70;;;;;;5042739;28;20714;-72
2022/05/24 10:03:23;;;;;;;3.10;2.77;;;18.60;94.60;;;;;;5039409;28;22334;-72
2022/05/24 10:06:22;;;;;;;2.77;2.57;;;18.90;94.70;;;;;;5036109;28;20558;-74
2022/05/24 10:08:53;;;;;;;10.33;3.63;;;19.30;94.80;;;;;;5035182;28;20470;-76
2022/05/24 10:11:26;;;;;;;5.20;3.83;;;19.60;94.20;;;;;;5048690;28;20490;-71
2022/05/24 10:14:05;;;;;;;5.57;3.93;;;19.60;92.80;;;;;;5047281;28;20490;-71
2022/05/24 10:16:37;;;;;;;5.30;4.50;;;19.60;92.20;;;;;;5048306;28;20475;-72
2022/05/24 10:19:43;;;;;;;9.83;7.27;;;19.50;92.60;;;;;;5039459;28;20539;-74
2022/05/24 10:22:23;;;;;;;6.27;4.83;;;19.30;92.90;;;;;;5035816;28;20481;-76
2022/05/24 10:25:05;;;;;;;5.17;4.27;;;19.20;93.30;;;;;;5043845;28;20585;-72
2022/05/24 10:27:42;;;;;;;8.77;4.70;;;19.00;91.70;;;;;;5037579;28;20478;-76
2022/05/24 10:30:16;;;;;;;6.70;5.63;;;18.80;91.60;;;;;;5041625;28;20471;-77
2022/05/24 10:38:53;;;;;;;5.80;4.63;;;18.60;92.70;;;;;;5041142;28;20524;-76
2022/05/24 10:41:25;;;;;;;11.53;3.40;;;18.50;91.30;;;;;;5032441;28;20474;-78
2022/05/24 10:44:01;;;;;;;4.40;3.60;;;18.60;91.40;;;;;;5040820;28;20476;-69
2022/05/24 10:46:35;;;;;;;4.03;3.57;;;18.80;91.60;;;;;;5038790;28;20846;-72
2022/05/24 10:49:11;;;;;;;6.83;4.70;;;19.00;92.50;;;;;;5042047;28;20488;-75
2022/05/24 10:51:48;;;;;;;5.87;4.87;;;19.50;92.60;;;;;;5039170;28;20965;-75
2022/05/24 10:54:23;;;;;;;6.60;4.97;;;19.60;92.10;;;;;;5041372;28;20482;-75
2022/05/24 10:56:54;;;;;;;6.33;4.77;;;19.70;90.30;;;;;;5038859;28;20471;-74
2022/05/24 10:59:30;;;;;;;5.33;4.20;;;19.60;90.10;;;;;;5042995;28;20478;-75
2022/05/24 11:02:03;;;;;;;5.57;4.27;;;19.60;89.50;;;;;;5041172;28;20466;-78
2022/05/24 11:04:42;;;;;;;15.80;4.30;;;19.60;89.50;;;;;;5051228;28;20470;-74
2022/05/24 11:07:15;;;;;;;6.80;5.50;;;19.50;88.10;;;;;;5037790;28;20686;-74
2022/05/24 11:09:51;;;;;;;12.60;4.00;;;19.60;89.10;;;;;;5055944;28;20486;-75
2022/05/24 11:12:22;;;;;;;4.80;4.07;;;19.70;90.40;;;;;;5040506;28;20466;-75
2022/05/24 11:14:52;;;;;;;21.93;4.70;;;19.70;86.20;;;;;;5027538;28;20472;-77
2022/05/24 11:17:20;;;;;;;4.40;4.00;;;19.70;86.30;;;;;;5023704;28;20573;-76
2022/05/24 11:19:51;;;;;;;4.87;4.33;;;19.70;86.90;;;;;;5044765;28;20479;-76
2022/05/24 11:22:27;;;;;;;13.03;2.60;;;19.80;86.70;;;;;;5026476;28;20470;-76
2022/05/24 11:24:59;;;;;;;4.50;3.13;;;20.00;86.60;;;;;;5025238;28;20475;-75
2022/05/24 11:27:30;;;;;;;6.03;4.17;;;20.30;86.40;;;;;;5042613;28;20989;-79
2022/05/24 11:30:00;;;;;;;6.67;5.37;;;20.50;85.20;;;;;;5038743;28;20493;-75
2022/05/24 11:32:34;;;;;;;4.33;3.50;;;;;;;;;;5040944;28;21256;-73
2022/05/24 11:35:06;;;;;;;6.70;5.07;;;20.70;81.10;;;;;;5046237;28;20477;-72
2022/05/24 11:37:36;;;;;;;3.90;3.50;;;20.90;83.00;;;;;;5039585;28;20471;-74
2022/05/24 11:40:29;;;;;;;4.77;4.17;;;21.00;81.50;;;;;;5041553;28;20805;-76
2022/05/24 11:42:56;;;;;;;6.60;4.53;;;21.00;84.60;;;;;;5044756;28;20489;-71
2022/05/24 11:46:01;;;;;;;11.13;4.70;;;21.10;85.10;;;;;;5043243;28;20501;-78
2022/05/24 11:48:49;;;;;;;27.40;4.30;;;21.20;82.40;;;;;;5049245;28;20554;-73
2022/05/24 11:51:39;;;;;;;7.40;4.57;;;21.10;80.10;;;;;;5046839;28;20507;-75
2022/05/24 11:54:28;;;;;;;7.27;5.47;;;21.10;81.40;;;;;;5044968;28;20478;-77
2022/05/24 11:57:17;;;;;;;7.20;2.50;;;21.20;82.90;;;;;;5028022;28;21041;-76
2022/05/24 11:59:53;;;;;;;5.17;4.67;;;21.30;83.10;;;;;;5044975;28;20465;-73
2022/05/24 12:08:35;;;;;;;9.83;3.07;;;20.70;82.80;;;;;;5014758;28;20474;-73
2022/05/24 12:11:17;;;;;;;4.37;3.60;;;20.60;80.50;;;;;;5019104;28;20483;-76
2022/05/24 12:14:10;;;;;;;9.53;3.90;;;20.30;82.10;;;;;;5019145;28;20679;-75
2022/05/24 12:16:45;;;;;;;7.23;4.47;;;20.10;84.20;;;;;;5020835;28;20976;-74
2022/05/24 12:19:40;;;;;;;7.37;4.53;;;20.40;85.70;;;;;;5019545;28;20801;-76
2022/05/24 12:22:10;;;;;;;9.30;3.47;;;20.40;82.90;;;;;;5013677;28;20573;-77
2022/05/24 12:25:01;;;;;;;7.13;4.13;;;20.40;81.80;;;;;;5022074;28;20833;-73
2022/05/24 12:27:44;;;;;;;9.20;3.00;;;20.70;82.80;;;;;;5011032;28;21045;-72
2022/05/24 12:30:41;;;;;;;6.10;5.50;;;20.60;83.30;;;;;;5026528;28;20864;-70
2022/05/24 12:33:34;;;;;;;7.03;6.00;;;20.40;80.50;;;;;;5020283;28;20541;-73
2022/05/24 12:36:15;;;;;;;5.60;3.93;;;20.60;83.30;;;;;;5024682;28;20471;-75
2022/05/24 12:38:49;;;;;;;6.23;5.20;;;20.40;85.90;;;;;;5022202;28;20478;-74
2022/05/24 12:41:20;;;;;;;6.03;4.30;;;20.30;83.50;;;;;;5013937;28;20476;-75
2022/05/24 12:43:53;;;;;;;5.63;3.77;;;20.10;83.00;;;;;;5019078;28;20474;-71
2022/05/24 12:46:19;;;;;;;11.93;2.90;;;20.10;83.10;;;;;;5022359;28;20473;-74
2022/05/24 12:48:48;;;;;;;6.27;5.33;;;20.10;82.10;;;;;;5019814;28;20489;-72
2022/05/24 12:51:19;;;;;;;5.57;3.93;;;;;;;;;;5015440;28;20809;-74
2022/05/24 12:53:47;;;;;;;4.00;3.60;;;19.90;83.40;;;;;;5020577;28;20478;-77
2022/05/24 12:56:19;;;;;;;5.33;4.00;;;19.90;84.60;;;;;;5009497;28;20825;-73
2022/05/24 12:58:49;;;;;;;22.27;4.80;;;20.00;86.40;;;;;;5025517;28;20495;-78
2022/05/24 13:01:19;;;;;;;6.30;4.43;;;20.00;86.80;;;;;;5026378;28;20502;-76
2022/05/24 13:03:51;;;;;;;6.90;4.90;;;20.30;86.50;;;;;;5031532;28;20481;-75
2022/05/24 13:06:26;;;;;;;11.00;3.00;;;20.30;83.50;;;;;;5017743;28;20487;-76
2022/05/24 13:09:22;;;;;;;4.37;3.73;;;20.40;84.00;;;;;;5024294;28;20609;-74
2022/05/24 13:11:53;;;;;;;4.37;3.93;;;20.20;82.50;;;;;;5040577;28;20890;-72
2022/05/24 13:14:42;;;;;;;6.33;4.90;;;20.00;84.50;;;;;;5042137;28;20481;-73
2022/05/24 13:17:10;;;;;;;5.80;5.10;;;20.00;82.60;;;;;;5018467;28;21119;-76
2022/05/24 13:19:46;;;;;;;4.90;3.63;;;19.90;79.70;;;;;;5027900;28;20477;-78
2022/05/24 13:22:13;;;;;;;6.40;5.37;;;19.80;76.80;;;;;;5043353;28;20512;-73
2022/05/24 13:24:56;;;;;;;3.87;3.43;;;19.80;77.50;;;;;;5043132;28;20474;-75
2022/05/24 13:27:23;;;;;;;7.10;3.93;;;19.60;79.80;;;;;;5040463;28;20753;-76
2022/05/24 13:35:28;;;;;;;13.27;6.17;;;19.20;80.40;;;;;;5030582;28;20480;-74
2022/05/24 13:37:58;;;;;;;3.93;3.17;;;18.90;79.80;;;;;;5030183;28;20507;-76
2022/05/24 13:40:51;;;;;;;4.30;3.57;;;18.70;83.10;;;;;;5044099;28;21049;-77
2022/05/24 13:43:32;;;;;;;7.13;3.43;;;18.60;84.70;;;;;;5050046;28;20480;-73
2022/05/24 13:46:07;;;;;;;5.57;3.80;;;18.40;88.00;;;;;;5036628;28;20474;-73